Time;durP1;ratioP1;P1;durP2;ratioP2;P2;SDS_P1;SDS_P2;PMS_P1;PMS_P2;Temp;Humidity;BMP_temperature;BMP_pressure;BME280_temperature;BME280_humidity;BME280_pressure;Samples;Min_cycle;Max_cycle;Signal;HPM_P1;HPM_P2
2022/07/03 00:01:19;;;;;;;2.73;2.20;;;19.10;94.90;;;;;;4999029;28;20639;-85
2022/07/03 00:03:44;;;;;;;2.83;2.10;;;19.10;95.00;;;;;;5016190;28;20205;-85
2022/07/03 00:06:11;;;;;;;3.87;2.00;;;19.00;94.90;;;;;;4999739;28;20226;-84
2022/07/03 00:08:37;;;;;;;3.87;2.13;;;19.10;94.80;;;;;;4999475;28;20186;-84
2022/07/03 00:11:03;;;;;;;6.13;2.40;;;19.10;95.10;;;;;;5000142;28;20177;-85
2022/07/03 00:13:28;;;;;;;2.10;1.87;;;18.80;95.20;;;;;;5001387;28;20199;-84
2022/07/03 00:15:54;;;;;;;3.63;2.50;;;18.80;95.90;;;;;;5000817;28;20178;-84
2022/07/03 00:18:20;;;;;;;4.40;2.13;;;18.70;95.90;;;;;;5000504;28;20171;-84
2022/07/03 00:20:49;;;;;;;6.70;2.17;;;18.60;95.80;;;;;;5000084;28;20194;-84
2022/07/03 00:23:20;;;;;;;4.27;2.00;;;18.70;95.80;;;;;;4998948;28;20874;-84
2022/07/03 00:25:47;;;;;;;6.03;2.50;;;18.60;95.80;;;;;;4999890;28;20266;-84
2022/07/03 00:28:13;;;;;;;6.17;2.33;;;18.50;95.70;;;;;;5017642;28;20201;-85
2022/07/03 00:30:39;;;;;;;3.67;2.67;;;18.70;96.10;;;;;;5000200;28;20174;-84
2022/07/03 00:33:05;;;;;;;4.50;2.40;;;18.70;96.00;;;;;;4999670;28;20202;-85
2022/07/03 00:35:34;;;;;;;3.53;2.23;;;18.50;96.00;;;;;;4999855;28;20202;-85
2022/07/03 00:38:00;;;;;;;7.50;2.23;;;18.50;95.70;;;;;;4999616;28;20175;-85
2022/07/03 00:40:26;;;;;;;4.57;2.43;;;18.50;96.20;;;;;;4999785;28;20745;-85
2022/07/03 00:42:52;;;;;;;3.67;2.47;;;18.50;96.20;;;;;;4999192;28;20294;-85
2022/07/03 00:45:20;;;;;;;3.17;2.23;;;18.50;96.10;;;;;;4999802;28;20202;-85
2022/07/03 00:47:47;;;;;;;4.77;2.60;;;18.50;96.00;;;;;;4999709;28;20198;-84
2022/07/03 00:50:13;;;;;;;5.77;2.43;;;18.50;96.10;;;;;;4999441;28;20206;-85
2022/07/03 00:52:45;;;;;;;4.37;2.60;;;18.40;96.20;;;;;;5001651;28;20217;-85
2022/07/03 00:55:15;;;;;;;2.83;2.10;;;18.40;96.10;;;;;;5000381;28;20245;-84
2022/07/03 00:57:46;;;;;;;6.27;2.67;;;18.40;96.60;;;;;;5000278;28;20178;-85
2022/07/03 01:00:14;;;;;;;6.97;2.57;;;18.30;96.70;;;;;;5000134;28;20179;-84
2022/07/03 01:02:40;;;;;;;4.90;3.10;;;18.30;97.00;;;;;;4998474;28;20722;-85
2022/07/03 01:05:08;;;;;;;5.60;3.00;;;18.20;97.10;;;;;;4999533;28;20175;-84
2022/07/03 01:07:37;;;;;;;5.87;3.03;;;18.20;97.00;;;;;;4999677;28;20198;-84
2022/07/03 01:10:25;;;;;;;5.37;2.47;;;18.10;97.50;;;;;;4999694;28;20202;-85
2022/07/03 01:12:55;;;;;;;6.23;3.67;;;18.10;97.50;;;;;;4999969;28;20655;-84
2022/07/03 01:15:33;;;;;;;6.03;2.73;;;18.00;97.00;;;;;;4999885;28;20278;-85
2022/07/03 01:18:17;;;;;;;7.00;3.03;;;18.10;97.30;;;;;;5000592;28;20182;-85
2022/07/03 01:20:46;;;;;;;5.50;2.70;;;18.10;97.20;;;;;;5000359;28;20178;-84
2022/07/03 01:23:29;;;;;;;10.93;2.83;;;18.10;97.40;;;;;;4999389;28;20721;-84
2022/07/03 01:25:59;;;;;;;6.50;3.40;;;18.20;97.10;;;;;;4997534;28;20206;-84
2022/07/03 01:28:25;;;;;;;6.43;2.60;;;18.20;97.20;;;;;;4997769;28;20167;-84
2022/07/03 01:30:52;;;;;;;4.30;3.13;;;18.20;96.80;;;;;;4998594;28;20289;-84
2022/07/03 01:33:24;;;;;;;4.03;3.10;;;18.20;97.30;;;;;;4997708;28;20198;-84
2022/07/03 01:36:05;;;;;;;5.23;3.00;;;18.00;97.10;;;;;;4997938;28;20175;-84
2022/07/03 01:38:36;;;;;;;3.73;2.80;;;18.10;96.90;;;;;;4997572;28;20745;-84
2022/07/03 01:41:03;;;;;;;4.70;2.80;;;18.10;97.10;;;;;;4997160;28;20163;-85
2022/07/03 01:43:32;;;;;;;7.30;2.93;;;18.00;97.50;;;;;;4997386;28;20281;-84
2022/07/03 01:45:59;;;;;;;3.30;2.63;;;17.70;97.70;;;;;;4998591;28;20718;-84
2022/07/03 01:48:27;;;;;;;5.70;2.80;;;17.80;98.20;;;;;;4997481;28;20261;-84
2022/07/03 01:50:54;;;;;;;8.10;3.27;;;17.80;97.50;;;;;;4997445;28;20170;-84
2022/07/03 01:53:22;;;;;;;9.10;3.47;;;17.60;98.00;;;;;;4997230;28;20190;-84
2022/07/03 01:55:50;;;;;;;6.50;2.70;;;17.70;98.00;;;;;;4997759;28;20253;-84
2022/07/03 01:58:15;;;;;;;4.90;3.13;;;17.60;98.30;;;;;;4997376;28;20175;-84
2022/07/03 02:00:50;;;;;;;4.80;3.17;;;17.60;98.60;;;;;;4997194;28;20177;-84
2022/07/03 02:03:57;;;;;;;4.80;2.63;;;17.60;98.50;;;;;;4996419;28;20194;-84
2022/07/03 02:06:45;;;;;;;5.47;2.97;;;17.40;98.80;;;;;;4996502;28;20293;-84
2022/07/03 02:09:11;;;;;;;4.60;3.07;;;17.30;99.30;;;;;;5037262;23;20225;-82
2022/07/03 02:11:43;;;;;;;3.90;3.50;;;17.40;98.90;;;;;;5056711;28;20165;-82
2022/07/03 02:14:16;;;;;;;5.30;3.20;;;17.30;99.60;;;;;;5057921;28;20186;-82
2022/07/03 02:17:11;;;;;;;3.83;3.00;;;17.10;99.90;;;;;;5056967;28;20185;-82
2022/07/03 02:19:52;;;;;;;7.87;2.93;;;17.20;99.80;;;;;;5058812;28;20173;-82
2022/07/03 02:22:31;;;;;;;5.07;3.73;;;17.20;99.90;;;;;;5063541;22;20164;-86
2022/07/03 02:25:06;;;;;;;5.47;3.57;;;17.20;99.70;;;;;;5054204;28;20192;-86
2022/07/03 02:27:43;;;;;;;9.53;3.43;;;17.40;99.50;;;;;;5053841;28;20695;-85
2022/07/03 02:30:11;;;;;;;6.60;3.77;;;17.30;99.40;;;;;;5054271;28;20169;-86
2022/07/03 02:32:47;;;;;;;5.40;3.90;;;17.20;99.90;;;;;;5054233;28;20189;-86
2022/07/03 02:35:30;;;;;;;6.27;3.57;;;17.10;99.90;;;;;;5054216;28;20176;-87
2022/07/03 02:38:18;;;;;;;6.00;3.60;;;17.10;99.90;;;;;;5053912;28;20195;-87
2022/07/03 02:41:06;;;;;;;10.57;3.90;;;17.00;99.90;;;;;;5054138;28;20177;-87
2022/07/03 02:43:42;;;;;;;9.33;3.73;;;17.20;99.90;;;;;;5054149;28;20189;-86
2022/07/03 02:49:43;;;;;;;11.03;3.70;;;17.00;99.90;;;;;;5055309;28;20164;-86
2022/07/03 02:52:43;;;;;;;9.03;3.57;;;16.90;99.90;;;;;;5053903;28;20661;-86
2022/07/03 02:55:17;;;;;;;4.40;3.30;;;16.60;99.90;;;;;;5054123;28;20194;-85
2022/07/03 02:57:43;;;;;;;3.67;2.93;;;16.70;99.90;;;;;;5054323;28;20587;-86
2022/07/03 03:00:11;;;;;;;5.13;3.40;;;17.00;99.90;;;;;;5053831;28;20207;-86
2022/07/03 03:02:55;;;;;;;4.50;3.47;;;17.10;99.90;;;;;;5052357;28;20241;-86
2022/07/03 03:05:37;;;;;;;7.43;3.53;;;17.10;99.90;;;;;;5052822;28;20174;-86
2022/07/03 03:08:21;;;;;;;8.83;3.70;;;17.00;99.90;;;;;;5054209;28;20699;-86
2022/07/03 03:10:50;;;;;;;5.37;3.93;;;16.90;99.90;;;;;;5053439;28;20268;-86
2022/07/03 03:13:19;;;;;;;5.30;3.63;;;17.00;99.90;;;;;;5052822;28;20834;-86
2022/07/03 03:15:56;;;;;;;8.07;4.13;;;17.00;99.90;;;;;;5053139;28;20170;-87
2022/07/03 03:18:27;;;;;;;7.00;3.90;;;16.90;99.90;;;;;;5053374;28;20176;-86
2022/07/03 03:20:58;;;;;;;5.77;3.90;;;16.80;99.90;;;;;;5052904;28;20166;-86
2022/07/03 03:23:44;;;;;;;5.37;3.80;;;16.70;99.90;;;;;;5052435;28;20304;-86
2022/07/03 03:26:11;;;;;;;6.30;3.70;;;16.60;99.90;;;;;;5053779;28;20200;-86
2022/07/03 03:28:38;;;;;;;5.60;3.73;;;16.60;99.90;;;;;;5053078;28;20261;-86
2022/07/03 03:31:08;;;;;;;7.07;4.10;;;16.70;99.90;;;;;;5053260;28;20203;-86
2022/07/03 03:33:39;;;;;;;7.37;3.93;;;16.70;99.90;;;;;;5052767;28;20232;-86
2022/07/03 03:36:07;;;;;;;5.93;3.90;;;16.80;99.90;;;;;;5053702;28;20173;-86
2022/07/03 03:38:33;;;;;;;6.23;3.50;;;16.80;99.90;;;;;;5053714;28;20268;-86
2022/07/03 03:40:59;;;;;;;7.80;3.77;;;16.80;99.90;;;;;;5054803;28;20770;-85
2022/07/03 03:43:24;;;;;;;5.90;3.60;;;16.80;99.90;;;;;;5053201;28;20193;-86
2022/07/03 03:45:50;;;;;;;7.00;3.90;;;16.70;99.90;;;;;;5053307;28;20173;-86
2022/07/03 03:48:16;;;;;;;5.70;3.13;;;16.90;99.90;;;;;;5055943;28;20169;-86
2022/07/03 03:50:43;;;;;;;6.93;3.77;;;16.80;99.90;;;;;;5058377;28;20197;-86
2022/07/03 03:53:10;;;;;;;5.53;3.70;;;16.80;99.90;;;;;;5057917;28;20247;-86
2022/07/03 03:55:36;;;;;;;5.83;3.47;;;16.90;99.90;;;;;;5058011;28;20195;-86
2022/07/03 03:58:01;;;;;;;4.60;3.33;;;16.80;99.90;;;;;;5058293;28;20196;-86
2022/07/03 04:00:27;;;;;;;3.57;3.10;;;16.80;99.90;;;;;;5057923;28;20173;-86
2022/07/03 04:02:53;;;;;;;5.63;3.07;;;16.80;99.90;;;;;;5058973;28;20192;-85
2022/07/03 04:05:18;;;;;;;4.90;3.30;;;16.80;99.90;;;;;;5058679;28;20184;-85
2022/07/03 04:07:44;;;;;;;10.00;3.27;;;16.90;99.90;;;;;;5058754;28;20204;-86
2022/07/03 04:10:10;;;;;;;3.93;2.70;;;17.00;99.90;;;;;;5059086;28;20578;-87
2022/07/03 04:12:36;;;;;;;7.60;3.97;;;17.10;99.90;;;;;;5059219;28;20239;-86
2022/07/03 04:15:02;;;;;;;3.57;3.27;;;17.10;99.90;;;;;;5059443;28;20173;-87
2022/07/03 04:17:28;;;;;;;8.20;3.33;;;17.00;99.90;;;;;;5059260;28;20200;-87
2022/07/03 04:19:54;;;;;;;3.97;3.30;;;17.00;99.90;;;;;;5059611;28;20637;-86
2022/07/03 04:22:19;;;;;;;4.70;2.97;;;17.00;99.90;;;;;;5059559;28;20299;-86
2022/07/03 04:24:45;;;;;;;4.80;3.40;;;16.90;99.90;;;;;;5058875;28;20608;-86
2022/07/03 04:27:10;;;;;;;4.10;3.43;;;17.00;99.90;;;;;;5057827;28;20228;-86
2022/07/03 04:29:36;;;;;;;5.87;3.40;;;17.00;99.90;;;;;;5057031;28;20173;-86
2022/07/03 04:32:02;;;;;;;5.67;3.77;;;17.00;99.90;;;;;;5058233;28;20264;-86
2022/07/03 04:34:27;;;;;;;4.47;3.33;;;17.30;99.90;;;;;;5059229;28;20255;-86
2022/07/03 04:36:53;;;;;;;4.30;3.10;;;17.50;99.90;;;;;;5057156;28;20182;-86
2022/07/03 04:39:19;;;;;;;4.00;3.20;;;17.40;99.90;;;;;;5053881;28;20391;-86
2022/07/03 04:41:44;;;;;;;4.37;2.87;;;17.80;99.90;;;;;;5054026;28;20173;-86
2022/07/03 04:44:10;;;;;;;3.53;2.80;;;18.50;99.90;;;;;;5053596;28;20197;-85
2022/07/03 04:46:36;;;;;;;3.53;2.78;;;19.10;99.90;;;;;;5053655;28;20295;-86
2022/07/03 04:49:01;;;;;;;4.70;2.63;;;19.30;99.90;;;;;;5053628;28;20617;-86
2022/07/03 04:51:27;;;;;;;4.30;2.42;;;19.50;99.90;;;;;;5053499;28;20176;-87
2022/07/03 04:53:54;;;;;;;3.38;2.60;;;19.70;99.90;;;;;;5055592;28;20276;-84
2022/07/03 04:56:19;;;;;;;5.53;2.78;;;19.80;99.90;;;;;;5055077;28;20189;-86
2022/07/03 04:58:45;;;;;;;5.00;2.47;;;19.50;99.90;;;;;;5053954;28;20539;-86
2022/07/03 05:01:11;;;;;;;5.22;2.45;;;20.20;99.90;;;;;;5054072;28;20854;-86
2022/07/03 05:03:37;;;;;;;3.60;2.35;;;20.40;99.90;;;;;;5054039;28;20197;-85
2022/07/03 05:06:02;;;;;;;3.50;2.78;;;20.70;99.90;;;;;;5054431;28;20170;-86
2022/07/03 05:08:28;;;;;;;5.90;2.78;;;20.60;99.90;;;;;;5055415;28;20696;-86
2022/07/03 05:10:54;;;;;;;6.60;2.70;;;20.40;99.90;;;;;;5054177;28;20311;-86
2022/07/03 05:13:19;;;;;;;4.15;2.95;;;20.60;99.90;;;;;;5053644;28;20675;-87
2022/07/03 05:15:45;;;;;;;5.20;2.80;;;20.70;99.90;;;;;;5053674;28;20195;-86
2022/07/03 05:18:11;;;;;;;3.88;2.67;;;20.80;99.90;;;;;;5054356;28;20162;-86
2022/07/03 05:20:36;;;;;;;8.05;2.63;;;21.20;99.90;;;;;;5054757;28;20170;-85
2022/07/03 05:23:02;;;;;;;10.60;3.13;;;21.40;99.90;;;;;;5053326;28;20244;-87
2022/07/03 05:25:30;;;;;;;10.95;3.30;;;21.50;99.90;;;;;;5053635;28;20170;-86
2022/07/03 05:27:57;;;;;;;6.22;2.83;;;21.40;99.90;;;;;;5052613;28;20207;-86
2022/07/03 05:30:24;;;;;;;3.53;2.45;;;21.40;99.90;;;;;;5053414;28;20170;-85
2022/07/03 05:32:50;;;;;;;9.00;2.83;;;21.40;99.90;;;;;;5052962;28;20196;-85
2022/07/03 05:35:16;;;;;;;8.02;2.85;;;21.40;99.90;;;;;;5054795;28;20730;-86
2022/07/03 05:37:42;;;;;;;6.80;2.50;;;21.70;99.90;;;;;;5053279;28;20247;-86
2022/07/03 05:40:09;;;;;;;5.68;3.00;;;22.00;99.90;;;;;;5053901;28;20177;-86
2022/07/03 05:42:34;;;;;;;4.47;2.65;;;22.30;99.90;;;;;;5053506;28;20200;-87
2022/07/03 05:45:01;;;;;;;4.30;2.80;;;22.40;99.90;;;;;;5053207;28;20177;-85
2022/07/03 05:47:27;;;;;;;4.38;2.42;;;22.70;99.50;;;;;;5052909;28;20224;-86
2022/07/03 05:49:53;;;;;;;7.32;2.90;;;22.90;99.90;;;;;;5052951;28;20239;-87
2022/07/03 05:52:19;;;;;;;3.33;2.53;;;23.10;98.80;;;;;;5052205;28;20169;-86
2022/07/03 05:54:45;;;;;;;3.58;2.40;;;23.40;98.60;;;;;;5052574;28;20184;-86
2022/07/03 05:57:12;;;;;;;3.58;2.70;;;23.40;97.20;;;;;;5052608;28;20548;-85
2022/07/03 05:59:38;;;;;;;8.20;2.83;;;23.60;96.40;;;;;;5052870;28;20193;-85
2022/07/03 06:02:04;;;;;;;4.22;2.58;;;23.90;96.00;;;;;;5052748;28;20246;-85
2022/07/03 06:04:30;;;;;;;4.85;3.10;;;24.20;96.30;;;;;;5052512;28;20640;-86
2022/07/03 06:06:56;;;;;;;2.53;2.30;;;24.30;95.60;;;;;;5052306;28;20234;-86
2022/07/03 06:09:24;;;;;;;3.13;2.10;;;24.60;94.90;;;;;;5052392;28;20173;-86
2022/07/03 06:11:50;;;;;;;4.43;1.90;;;24.40;94.40;;;;;;5052602;28;20260;-85
2022/07/03 06:14:16;;;;;;;4.22;1.95;;;24.00;94.40;;;;;;5052825;28;20624;-86
2022/07/03 06:16:42;;;;;;;3.33;1.92;;;24.70;94.00;;;;;;5052641;28;20227;-85
2022/07/03 06:19:07;;;;;;;7.10;2.00;;;24.30;93.20;;;;;;5052172;28;20642;-86
2022/07/03 06:21:33;;;;;;;16.95;2.00;;;25.00;92.70;;;;;;5052237;28;20177;-85
2022/07/03 06:24:02;;;;;;;3.50;2.13;;;25.10;91.80;;;;;;5051932;28;20250;-84
2022/07/03 06:26:29;;;;;;;3.30;2.13;;;24.90;92.10;;;;;;5051820;28;20204;-85
2022/07/03 06:28:55;;;;;;;2.97;1.80;;;25.30;91.60;;;;;;5052452;28;20209;-85
2022/07/03 06:31:20;;;;;;;3.80;1.80;;;25.40;91.80;;;;;;5052195;28;20165;-85
2022/07/03 06:33:46;;;;;;;5.55;1.80;;;25.70;91.60;;;;;;5051688;28;20658;-85
2022/07/03 06:36:12;;;;;;;1.70;1.60;;;25.50;91.90;;;;;;5051902;28;20178;-85
2022/07/03 06:38:38;;;;;;;3.00;1.60;;;25.80;91.10;;;;;;5052525;28;20177;-86
2022/07/03 06:41:04;;;;;;;3.67;1.90;;;26.00;90.60;;;;;;5051915;28;20174;-85
2022/07/03 06:43:30;;;;;;;4.90;2.20;;;25.70;90.50;;;;;;5051346;28;20220;-85
2022/07/03 06:45:55;;;;;;;4.70;1.90;;;25.70;90.60;;;;;;5051820;28;20181;-85
2022/07/03 06:48:21;;;;;;;4.55;2.00;;;25.70;90.10;;;;;;5052012;28;20508;-85
2022/07/03 06:50:46;;;;;;;7.10;1.80;;;26.20;89.00;;;;;;5053226;28;20691;-87
2022/07/03 06:53:12;;;;;;;6.43;1.98;;;25.90;90.30;;;;;;5052169;28;20673;-85
2022/07/03 06:55:38;;;;;;;3.45;1.70;;;26.30;88.80;;;;;;5051749;28;20629;-85
2022/07/03 06:58:04;;;;;;;5.70;1.55;;;26.50;89.70;;;;;;5051315;28;20173;-85
2022/07/03 07:00:29;;;;;;;3.53;1.83;;;26.20;90.40;;;;;;5051347;28;20219;-84
2022/07/03 07:02:55;;;;;;;2.72;1.80;;;26.40;90.10;;;;;;5053682;28;20203;-81
2022/07/03 07:05:22;;;;;;;2.85;2.08;;;26.80;88.90;;;;;;5052129;28;20177;-84
2022/07/03 07:07:48;;;;;;;2.97;1.60;;;26.20;89.90;;;;;;5051826;28;20229;-85
2022/07/03 07:10:14;;;;;;;2.85;1.55;;;26.90;89.30;;;;;;5051897;28;20176;-84
2022/07/03 07:12:39;;;;;;;6.05;1.90;;;27.60;87.80;;;;;;5052053;28;20556;-84
2022/07/03 07:15:06;;;;;;;1.58;1.48;;;27.40;87.10;;;;;;5052034;28;20185;-84
2022/07/03 07:17:31;;;;;;;2.72;2.10;;;27.30;86.30;;;;;;5051990;28;20695;-84
2022/07/03 07:19:57;;;;;;;2.95;1.88;;;27.00;88.70;;;;;;5052042;28;20177;-84
2022/07/03 07:22:25;;;;;;;5.20;1.75;;;27.30;88.20;;;;;;5051576;28;20570;-84
2022/07/03 07:24:51;;;;;;;3.85;2.05;;;27.10;88.80;;;;;;5053000;28;20263;-82
2022/07/03 07:27:16;;;;;;;1.70;1.55;;;27.50;85.70;;;;;;5053786;28;20208;-81
2022/07/03 07:29:42;;;;;;;3.42;1.90;;;27.20;87.10;;;;;;5054648;28;20537;-82
2022/07/03 07:32:08;;;;;;;4.18;2.10;;;27.50;85.20;;;;;;5052786;28;20170;-82
2022/07/03 07:34:34;;;;;;;2.38;1.63;;;27.60;86.10;;;;;;5052951;28;20597;-81
2022/07/03 07:36:59;;;;;;;2.97;2.00;;;27.50;86.40;;;;;;5053298;28;20533;-81
2022/07/03 07:39:25;;;;;;;2.58;1.90;;;27.60;85.20;;;;;;5054083;28;20173;-82
2022/07/03 07:41:51;;;;;;;4.10;2.33;;;28.30;84.80;;;;;;5053220;28;20169;-82
2022/07/03 07:44:16;;;;;;;3.17;1.98;;;27.90;86.00;;;;;;5052645;28;20201;-83
2022/07/03 07:46:42;;;;;;;4.88;2.20;;;27.90;85.30;;;;;;5053064;28;20193;-82
2022/07/03 07:49:07;;;;;;;6.13;1.83;;;28.00;83.90;;;;;;5052770;28;20173;-81
2022/07/03 07:51:33;;;;;;;1.70;1.60;;;28.00;86.60;;;;;;5052367;28;20173;-81
2022/07/03 07:53:59;;;;;;;2.47;1.83;;;28.10;84.30;;;;;;5053703;28;20177;-81
2022/07/03 07:56:26;;;;;;;3.30;1.83;;;28.40;84.50;;;;;;5052574;28;20180;-81
2022/07/03 07:58:52;;;;;;;2.03;1.80;;;28.50;85.10;;;;;;5053106;28;20173;-81
2022/07/03 08:06:48;;;;;;;6.88;2.03;;;28.60;82.90;;;;;;5053328;28;20565;-81
2022/07/03 08:09:13;;;;;;;4.28;1.75;;;28.10;82.70;;;;;;5052991;28;20161;-84
2022/07/03 08:11:39;;;;;;;3.38;1.77;;;27.80;85.00;;;;;;5053124;28;20177;-83
2022/07/03 08:14:07;;;;;;;4.10;1.50;;;28.40;84.60;;;;;;5052583;28;20185;-83
2022/07/03 08:16:38;;;;;;;4.32;1.75;;;28.40;84.60;;;;;;5052823;28;20192;-83
2022/07/03 08:19:04;;;;;;;4.82;1.73;;;28.70;82.50;;;;;;5052341;28;20540;-82
2022/07/03 08:21:30;;;;;;;4.03;1.95;;;28.50;83.60;;;;;;5052033;28;20184;-84
2022/07/03 08:23:55;;;;;;;2.03;1.25;;;28.60;85.00;;;;;;5052594;28;20239;-83
2022/07/03 08:26:21;;;;;;;7.32;1.88;;;29.10;82.40;;;;;;5050986;28;20197;-83
2022/07/03 08:28:47;;;;;;;4.50;1.67;;;29.40;81.80;;;;;;5050590;28;20260;-84
2022/07/03 08:31:12;;;;;;;3.20;1.80;;;29.20;83.40;;;;;;5050052;28;20264;-83
2022/07/03 08:33:38;;;;;;;1.60;1.50;;;29.20;81.60;;;;;;5050478;28;20217;-83
2022/07/03 08:36:05;;;;;;;3.30;1.70;;;28.90;81.50;;;;;;5053506;28;20615;-84
2022/07/03 08:38:34;;;;;;;4.57;1.27;;;29.00;78.60;;;;;;5054010;28;20542;-83
2022/07/03 08:41:01;;;;;;;3.50;1.50;;;29.60;79.50;;;;;;5054201;28;20201;-82
2022/07/03 08:43:27;;;;;;;1.77;1.45;;;29.40;79.60;;;;;;5055800;28;20534;-81
2022/07/03 08:45:54;;;;;;;2.17;1.30;;;29.50;80.60;;;;;;5054786;28;20180;-81
2022/07/03 08:48:22;;;;;;;4.80;1.45;;;29.80;81.50;;;;;;5054210;28;20181;-81
2022/07/03 08:50:50;;;;;;;2.30;1.27;;;29.80;78.60;;;;;;5054607;28;20173;-81
2022/07/03 08:53:17;;;;;;;1.88;1.30;;;29.50;77.60;;;;;;5053655;28;20719;-81
2022/07/03 08:55:43;;;;;;;3.30;1.30;;;29.40;79.20;;;;;;5054263;28;20701;-81
2022/07/03 08:58:12;;;;;;;2.60;1.50;;;29.60;77.10;;;;;;5057638;28;20184;-81
2022/07/03 09:00:38;;;;;;;4.07;1.60;;;29.50;79.20;;;;;;5055309;28;20177;-81
2022/07/03 09:03:10;;;;;;;3.58;1.38;;;29.80;79.00;;;;;;5053509;28;20193;-81
2022/07/03 09:05:35;;;;;;;2.60;1.40;;;29.80;77.60;;;;;;5054885;28;20211;-81
2022/07/03 09:08:02;;;;;;;1.67;1.30;;;29.50;78.10;;;;;;5052752;28;20728;-81
2022/07/03 09:10:28;;;;;;;2.03;1.20;;;29.60;78.80;;;;;;5052014;28;20169;-81
2022/07/03 09:12:55;;;;;;;1.67;1.20;;;30.20;76.80;;;;;;5054749;28;20669;-81
2022/07/03 09:15:22;;;;;;;1.77;1.20;;;30.30;77.20;;;;;;5054390;28;20255;-81
2022/07/03 09:18:05;;;;;;;1.88;1.10;;;29.80;78.90;;;;;;5054198;28;20176;-82
2022/07/03 09:20:34;;;;;;;4.07;1.50;;;30.10;76.60;;;;;;5053262;28;20185;-80
2022/07/03 09:23:16;;;;;;;5.75;1.23;;;30.10;74.80;;;;;;5053821;28;20628;-80
2022/07/03 09:26:02;;;;;;;3.78;1.50;;;29.70;77.00;;;;;;5054920;28;20173;-81
2022/07/03 09:28:51;;;;;;;3.85;1.48;;;29.40;77.60;;;;;;5054181;28;20196;-82
2022/07/03 09:31:22;;;;;;;2.38;1.48;;;30.20;75.90;;;;;;5053969;28;20664;-81
2022/07/03 09:33:58;;;;;;;6.25;1.92;;;30.00;79.20;;;;;;5055467;28;20185;-82
2022/07/03 09:36:39;;;;;;;9.30;1.90;;;30.20;76.80;;;;;;5054382;28;20169;-82
2022/07/03 09:39:18;;;;;;;4.80;1.50;;;29.70;80.00;;;;;;5053608;28;20192;-83
2022/07/03 09:41:59;;;;;;;3.08;1.95;;;30.60;77.40;;;;;;5054308;28;20177;-84
2022/07/03 09:44:34;;;;;;;4.00;1.80;;;30.10;76.50;;;;;;5053747;28;20199;-80
2022/07/03 09:47:19;;;;;;;5.70;2.20;;;29.80;76.00;;;;;;5053588;28;20919;-80
2022/07/03 09:49:51;;;;;;;4.05;1.55;;;29.40;77.60;;;;;;5054136;28;20259;-80
2022/07/03 09:52:33;;;;;;;4.25;1.90;;;29.80;77.40;;;;;;5054129;28;20169;-81
2022/07/03 09:55:20;;;;;;;4.63;1.90;;;30.40;78.70;;;;;;5055443;28;20174;-81
2022/07/03 09:57:52;;;;;;;4.65;2.10;;;30.40;76.70;;;;;;5053363;28;20188;-81
2022/07/03 10:00:36;;;;;;;4.85;1.92;;;30.20;75.90;;;;;;5053138;28;20169;-80
2022/07/03 10:03:06;;;;;;;3.63;1.88;;;29.90;78.70;;;;;;5052579;28;20262;-80
2022/07/03 10:05:32;;;;;;;7.22;1.60;;;30.20;77.10;;;;;;5052456;28;20642;-80
2022/07/03 10:08:02;;;;;;;4.57;1.45;;;30.40;75.60;;;;;;5051880;28;20228;-80
2022/07/03 10:10:31;;;;;;;2.55;1.80;;;29.80;76.50;;;;;;5053709;28;20173;-82
2022/07/03 10:12:58;;;;;;;3.53;2.17;;;30.00;75.90;;;;;;5053647;28;20244;-80
2022/07/03 10:15:25;;;;;;;5.35;1.80;;;29.70;76.80;;;;;;5053827;28;20594;-80
2022/07/03 10:17:56;;;;;;;4.35;2.13;;;30.00;79.20;;;;;;5052030;28;20176;-80
2022/07/03 10:20:35;;;;;;;5.05;2.47;;;30.20;78.40;;;;;;5032563;28;20174;-79
2022/07/03 10:23:02;;;;;;;2.40;1.67;;;31.00;77.40;;;;;;5032337;28;20209;-81
2022/07/03 10:25:30;;;;;;;3.58;1.80;;;30.30;77.80;;;;;;5031996;28;20197;-81
2022/07/03 10:27:56;;;;;;;3.00;1.63;;;30.80;75.70;;;;;;5032017;28;20201;-82
2022/07/03 10:30:23;;;;;;;3.83;1.70;;;30.90;78.20;;;;;;5048736;28;20169;-82
2022/07/03 10:32:50;;;;;;;4.38;1.70;;;30.80;76.20;;;;;;5051881;28;20196;-82
2022/07/03 10:35:20;;;;;;;5.85;2.13;;;30.00;75.00;;;;;;5052994;28;20169;-82
2022/07/03 10:37:53;;;;;;;3.70;1.70;;;29.70;76.90;;;;;;5051604;28;20173;-83
2022/07/03 10:46:24;;;;;;;6.32;1.95;;;30.00;76.20;;;;;;5052987;28;20318;-82
2022/07/03 10:49:00;;;;;;;5.35;1.67;;;30.60;75.40;;;;;;5051743;28;20184;-82
2022/07/03 10:51:27;;;;;;;4.60;1.60;;;30.90;74.70;;;;;;5051595;28;20169;-82
2022/07/03 10:54:13;;;;;;;5.50;1.80;;;30.90;75.80;;;;;;5052233;28;20243;-82
2022/07/03 10:56:57;;;;;;;4.45;1.80;;;30.60;75.10;;;;;;5050953;28;20259;-81
2022/07/03 10:59:23;;;;;;;2.15;1.55;;;30.50;77.20;;;;;;5050992;28;20169;-81
2022/07/03 11:01:48;;;;;;;2.17;1.48;;;30.20;74.30;;;;;;5051395;28;20177;-82
2022/07/03 11:04:14;;;;;;;3.65;1.50;;;29.50;76.10;;;;;;5050656;28;20572;-80
2022/07/03 11:06:43;;;;;;;4.65;1.45;;;30.00;75.20;;;;;;5050626;28;20206;-81
2022/07/03 11:09:13;;;;;;;3.20;1.35;;;30.50;78.40;;;;;;5051532;28;20173;-80
2022/07/03 11:11:55;;;;;;;3.70;1.80;;;30.40;76.60;;;;;;5052729;28;20169;-80
2022/07/03 11:14:23;;;;;;;3.85;1.70;;;30.90;74.90;;;;;;5053245;28;20283;-80
2022/07/03 11:17:09;;;;;;;5.80;1.70;;;30.30;76.60;;;;;;5055184;28;20177;-79
2022/07/03 11:19:35;;;;;;;3.20;1.60;;;30.40;74.70;;;;;;5054929;28;20177;-80
2022/07/03 11:22:05;;;;;;;7.35;1.50;;;30.50;76.50;;;;;;5051384;28;20177;-80
2022/07/03 11:24:41;;;;;;;2.45;1.60;;;31.10;75.00;;;;;;5052319;28;20558;-79
2022/07/03 11:27:17;;;;;;;4.00;1.40;;;30.80;75.10;;;;;;5052348;28;20193;-80
2022/07/03 11:29:57;;;;;;;4.50;1.85;;;31.00;76.50;;;;;;5052012;28;20173;-79
2022/07/03 11:32:57;;;;;;;2.10;1.63;;;31.90;75.80;;;;;;5051402;28;20212;-80
2022/07/03 11:35:46;;;;;;;3.95;1.75;;;31.90;72.80;;;;;;5047223;28;20231;-80
2022/07/03 11:38:14;;;;;;;2.25;1.52;;;29.70;76.20;;;;;;5051537;28;20188;-79
2022/07/03 11:40:43;;;;;;;3.40;2.00;;;29.10;77.10;;;;;;5052052;28;20173;-80
2022/07/03 11:43:09;;;;;;;4.53;1.90;;;28.40;75.80;;;;;;5051885;28;20189;-79
2022/07/03 11:45:38;;;;;;;5.63;1.95;;;28.60;77.10;;;;;;5051454;28;20226;-79
2022/07/03 11:48:11;;;;;;;3.67;1.80;;;29.40;75.20;;;;;;5034786;28;20232;-79
2022/07/03 11:50:47;;;;;;;1.67;1.58;;;30.10;77.50;;;;;;5051140;28;20199;-78
2022/07/03 11:53:27;;;;;;;1.80;1.58;;;30.80;75.40;;;;;;5050327;28;20204;-79
2022/07/03 11:56:03;;;;;;;2.72;1.80;;;30.10;77.50;;;;;;5051648;28;20590;-80
2022/07/03 11:58:47;;;;;;;2.88;1.83;;;30.10;74.70;;;;;;5050458;28;20227;-79
2022/07/03 12:01:22;;;;;;;3.55;1.70;;;29.70;76.50;;;;;;5051011;28;20579;-80
2022/07/03 12:03:48;;;;;;;5.07;2.05;;;29.80;75.60;;;;;;5052145;28;20189;-80
2022/07/03 12:06:14;;;;;;;3.22;1.92;;;29.90;75.00;;;;;;5051917;28;20180;-79
2022/07/03 12:08:42;;;;;;;4.20;1.80;;;29.80;74.40;;;;;;5052408;28;20540;-79
2022/07/03 12:11:09;;;;;;;2.28;1.73;;;28.70;76.30;;;;;;5055697;28;20226;-79
2022/07/03 12:13:35;;;;;;;1.70;1.60;;;28.10;78.70;;;;;;5055393;28;20185;-79
2022/07/03 12:16:03;;;;;;;3.50;1.58;;;28.20;78.20;;;;;;5055059;28;20166;-79
2022/07/03 12:18:48;;;;;;;7.25;1.60;;;28.00;78.80;;;;;;5054942;28;20169;-79
2022/07/03 12:21:15;;;;;;;3.70;1.58;;;27.90;79.20;;;;;;5055000;28;20653;-79
2022/07/03 12:23:54;;;;;;;3.38;1.63;;;27.60;78.00;;;;;;5054714;28;20570;-78
2022/07/03 12:26:33;;;;;;;2.70;1.50;;;27.10;79.60;;;;;;5054003;28;20169;-79
2022/07/03 12:29:01;;;;;;;7.47;1.45;;;27.40;79.40;;;;;;5053947;28;20295;-77
2022/07/03 12:31:28;;;;;;;5.13;1.58;;;27.70;79.50;;;;;;5053930;28;20172;-78
2022/07/03 12:33:55;;;;;;;2.63;1.60;;;28.50;81.10;;;;;;5054442;28;20186;-78
2022/07/03 12:36:21;;;;;;;1.83;1.65;;;28.70;79.60;;;;;;5055467;28;20180;-79
2022/07/03 12:38:52;;;;;;;5.30;1.40;;;28.30;78.90;;;;;;5055463;28;20169;-79
2022/07/03 12:41:19;;;;;;;5.07;1.35;;;28.60;79.60;;;;;;5055478;28;20165;-81
2022/07/03 12:43:47;;;;;;;3.83;1.35;;;28.60;79.80;;;;;;5055890;28;20196;-80
2022/07/03 12:46:20;;;;;;;2.10;1.30;;;28.70;80.50;;;;;;5057730;28;20586;-81
2022/07/03 12:48:47;;;;;;;5.88;1.30;;;29.00;79.90;;;;;;5056911;28;20711;-80
2022/07/03 12:51:13;;;;;;;3.25;1.45;;;28.60;77.60;;;;;;5056056;28;20173;-80
2022/07/03 12:53:38;;;;;;;3.75;1.50;;;27.90;78.10;;;;;;5055728;28;20192;-79
2022/07/03 12:56:06;;;;;;;3.05;1.50;;;27.60;78.50;;;;;;5055877;28;20706;-80
2022/07/03 13:01:29;;;;;;;6.95;1.48;;;28.10;79.80;;;;;;5056867;28;20176;-80
2022/07/03 13:03:55;;;;;;;2.20;1.40;;;27.90;80.20;;;;;;5055528;28;20193;-80
2022/07/03 13:06:24;;;;;;;8.10;1.50;;;27.80;79.30;;;;;;5055398;28;20184;-79
2022/07/03 13:08:55;;;;;;;4.40;1.42;;;27.90;79.80;;;;;;5053357;28;20181;-79
2022/07/03 13:11:34;;;;;;;3.25;1.30;;;27.80;79.00;;;;;;5053123;28;20770;-78
2022/07/03 13:14:14;;;;;;;4.55;1.30;;;27.70;79.30;;;;;;5053207;28;20557;-78
2022/07/03 13:16:49;;;;;;;3.35;1.08;;;27.90;80.60;;;;;;5053217;28;20235;-79